createdAt,value
2023-03-05T00:01:28.167Z,11.10
2023-03-05T00:03:57.007Z,10.17
2023-03-05T00:06:26.592Z,10.93
2023-03-05T00:08:56.613Z,10.50
2023-03-05T00:11:25.600Z,10.53
2023-03-05T00:13:53.503Z,11.07
2023-03-05T00:16:22.732Z,10.60
2023-03-05T00:18:50.218Z,10.93
2023-03-05T00:21:38.369Z,10.00
2023-03-05T00:24:10.710Z,9.23
2023-03-05T00:26:39.154Z,10.50
2023-03-05T00:29:08.583Z,10.30
2023-03-05T00:31:37.766Z,10.57
2023-03-05T00:34:11.339Z,9.30
2023-03-05T00:36:43.886Z,9.40
2023-03-05T00:39:12.153Z,9.13
2023-03-05T00:41:39.983Z,9.23
2023-03-05T00:44:08.250Z,9.93
2023-03-05T00:46:36.482Z,8.17
2023-03-05T00:49:04.315Z,8.97
2023-03-05T00:51:31.574Z,8.53
2023-03-05T00:53:59.078Z,8.33
2023-03-05T00:56:26.857Z,9.03
2023-03-05T00:58:56.092Z,9.23
2023-03-05T01:01:24.174Z,8.30
2023-03-05T01:03:51.432Z,8.80
2023-03-05T01:06:19.029Z,8.30
2023-03-05T01:08:46.373Z,7.47
2023-03-05T01:11:15.110Z,8.63
2023-03-05T01:13:42.455Z,7.77
2023-03-05T01:16:10.041Z,7.57
2023-03-05T01:18:38.463Z,8.30
2023-03-05T01:21:06.807Z,8.10
2023-03-05T01:23:35.631Z,7.67
2023-03-05T01:26:03.767Z,7.43
2023-03-05T01:28:32.448Z,8.07
2023-03-05T01:30:59.769Z,7.30
2023-03-05T01:33:27.026Z,5.77
2023-03-05T01:35:54.725Z,6.23
2023-03-05T01:38:22.109Z,6.30
2023-03-05T01:40:49.431Z,6.43
2023-03-05T01:43:29.774Z,7.43
2023-03-05T01:46:16.735Z,6.17
2023-03-05T01:48:49.503Z,6.83
2023-03-05T01:51:19.867Z,6.33
2023-03-05T01:53:47.767Z,6.40
2023-03-05T01:56:15.595Z,6.30
2023-03-05T01:58:48.061Z,5.77
2023-03-05T02:01:16.867Z,5.30
2023-03-05T02:03:45.734Z,5.47
2023-03-05T02:06:13.893Z,5.27
2023-03-05T02:08:41.261Z,5.07
2023-03-05T02:11:09.532Z,6.20
2023-03-05T02:13:40.921Z,6.33
2023-03-05T02:16:08.591Z,5.50
2023-03-05T02:18:36.407Z,6.03
2023-03-05T02:21:08.778Z,5.93
2023-03-05T02:23:38.645Z,6.43
2023-03-05T02:26:09.924Z,6.83
2023-03-05T02:28:44.506Z,6.90
2023-03-05T02:31:21.740Z,6.20
2023-03-05T02:33:49.584Z,6.57
2023-03-05T02:36:18.682Z,5.83
2023-03-05T02:38:47.116Z,6.40
2023-03-05T02:41:15.897Z,6.10
2023-03-05T02:43:43.814Z,6.50
2023-03-05T02:46:11.670Z,6.53
2023-03-05T02:48:39.989Z,6.90
2023-03-05T02:51:08.840Z,6.47
2023-03-05T02:53:36.600Z,6.80
2023-03-05T02:56:04.474Z,6.57
2023-03-05T02:58:34.505Z,6.77
2023-03-05T03:01:02.733Z,6.73
2023-03-05T03:03:30.292Z,7.17
2023-03-05T03:05:57.677Z,6.47
2023-03-05T03:08:24.998Z,7.10
2023-03-05T03:10:52.368Z,6.47
2023-03-05T03:13:19.695Z,6.87
2023-03-05T03:15:46.946Z,6.37
2023-03-05T03:18:14.286Z,6.23
2023-03-05T03:20:41.542Z,6.20
2023-03-05T03:23:09.050Z,6.27
2023-03-05T03:25:36.344Z,7.13
2023-03-05T03:28:03.763Z,6.23
2023-03-05T03:30:31.129Z,6.27
2023-03-05T03:32:58.382Z,6.13
2023-03-05T03:35:25.688Z,6.70
2023-03-05T03:37:52.994Z,6.70
2023-03-05T03:40:20.389Z,6.47
2023-03-05T03:42:47.684Z,7.27
2023-03-05T03:45:15.117Z,7.33
2023-03-05T03:47:42.360Z,8.47
2023-03-05T03:50:11.508Z,7.10
2023-03-05T03:52:39.185Z,7.50
2023-03-05T03:55:07.369Z,7.53
2023-03-05T03:57:35.194Z,7.20
2023-03-05T04:00:06.857Z,7.50
2023-03-05T04:02:39.604Z,7.53
2023-03-05T04:05:07.600Z,7.10
2023-03-05T04:07:35.557Z,7.53
2023-03-05T04:10:03.757Z,8.20
2023-03-05T04:12:31.890Z,7.13
2023-03-05T04:14:59.341Z,7.23
2023-03-05T04:17:26.740Z,6.20
2023-03-05T04:19:54.153Z,7.03
2023-03-05T04:22:21.513Z,7.47
2023-03-05T04:24:48.803Z,6.00
2023-03-05T04:27:16.135Z,5.63
2023-03-05T04:29:43.472Z,5.87
2023-03-05T04:32:10.815Z,6.93
2023-03-05T04:34:38.379Z,6.47
2023-03-05T04:37:05.964Z,5.93
2023-03-05T04:39:33.321Z,5.30
2023-03-05T04:42:00.717Z,5.13
2023-03-05T04:44:28.097Z,4.30
2023-03-05T04:46:55.445Z,3.90
2023-03-05T04:49:22.742Z,4.47
2023-03-05T04:51:50.003Z,3.87
2023-03-05T04:54:17.494Z,4.00
2023-03-05T04:56:44.752Z,3.60
2023-03-05T04:59:12.039Z,4.27
2023-03-05T05:01:39.424Z,3.97
2023-03-05T05:04:07.117Z,3.30
2023-03-05T05:06:34.750Z,3.83
2023-03-05T05:09:02.129Z,3.60
2023-03-05T05:11:29.814Z,3.80
2023-03-05T05:13:57.124Z,3.40
2023-03-05T05:16:24.728Z,3.57
2023-03-05T05:18:52.013Z,3.33
2023-03-05T05:21:20.327Z,2.90
2023-03-05T05:23:47.747Z,3.30
2023-03-05T05:26:15.714Z,3.07
2023-03-05T05:28:43.921Z,3.27
2023-03-05T05:31:14.477Z,3.30
2023-03-05T05:33:42.235Z,3.63
2023-03-05T05:36:13.097Z,3.73
2023-03-05T05:38:40.519Z,3.43
2023-03-05T05:41:11.008Z,3.13
2023-03-05T05:43:38.810Z,3.10
2023-03-05T05:46:09.198Z,3.20
2023-03-05T05:48:36.952Z,3.50
2023-03-05T05:51:13.221Z,3.50
2023-03-05T05:53:41.089Z,3.20
2023-03-05T05:56:10.210Z,3.40
2023-03-05T05:58:39.686Z,3.73
2023-03-05T06:01:26.388Z,3.30
2023-03-05T06:03:54.550Z,3.77
2023-03-05T06:06:24.781Z,3.70
2023-03-05T06:08:52.978Z,3.53
2023-03-05T06:11:20.959Z,3.90
2023-03-05T06:13:49.103Z,3.83
2023-03-05T06:16:19.178Z,4.23
2023-03-05T06:18:47.622Z,4.47
2023-03-05T06:21:17.551Z,4.03
2023-03-05T06:23:45.777Z,4.60
2023-03-05T06:26:15.288Z,4.30
2023-03-05T06:28:43.587Z,3.57
2023-03-05T06:31:21.707Z,3.93
2023-03-05T06:33:49.758Z,3.90
2023-03-05T06:36:20.031Z,3.50
2023-03-05T06:38:48.901Z,3.37
2023-03-05T06:41:19.687Z,3.57
2023-03-05T06:43:48.022Z,3.57
2023-03-05T06:46:16.740Z,3.93
2023-03-05T06:48:44.097Z,3.90
2023-03-05T06:51:17.021Z,4.13
2023-03-05T06:53:46.375Z,4.40
2023-03-05T06:56:16.658Z,3.77
2023-03-05T06:58:46.152Z,4.63
2023-03-05T07:01:14.549Z,4.00
2023-03-05T07:03:42.143Z,4.20
2023-03-05T07:06:12.031Z,4.00
2023-03-05T07:08:39.629Z,3.70
2023-03-05T07:11:15.947Z,4.10
2023-03-05T07:13:43.804Z,4.40
2023-03-05T07:16:15.092Z,4.90
2023-03-05T07:18:42.661Z,5.23
2023-03-05T07:21:12.867Z,4.60
2023-03-05T07:23:40.193Z,5.07
2023-03-05T07:26:07.500Z,5.60
2023-03-05T07:28:35.122Z,5.47
2023-03-05T07:31:07.553Z,5.93
2023-03-05T07:33:37.206Z,5.33
2023-03-05T07:36:08.124Z,6.13
2023-03-05T07:38:35.710Z,5.60
2023-03-05T07:41:14.727Z,6.37
2023-03-05T07:43:46.129Z,6.50
2023-03-05T07:46:16.571Z,6.27
2023-03-05T07:48:44.194Z,7.00
2023-03-05T07:51:17.698Z,7.03
2023-03-05T07:53:47.030Z,6.47
2023-03-05T07:56:20.486Z,6.50
2023-03-05T07:58:47.751Z,6.40
2023-03-05T08:01:15.249Z,6.83
2023-03-05T08:03:43.675Z,7.03
2023-03-05T08:06:12.328Z,6.97
2023-03-05T08:08:39.735Z,6.43
2023-03-05T08:11:09.646Z,7.73
2023-03-05T08:13:37.263Z,7.33
2023-03-05T08:16:09.841Z,7.43
2023-03-05T08:18:37.576Z,7.63
2023-03-05T08:21:15.359Z,7.20
2023-03-05T08:23:44.033Z,7.60
2023-03-05T08:26:13.771Z,7.40
2023-03-05T08:28:41.423Z,8.40
2023-03-05T08:31:10.752Z,8.80
2023-03-05T08:33:39.065Z,8.30
2023-03-05T08:36:08.481Z,8.00
2023-03-05T08:38:37.095Z,9.07
2023-03-05T08:41:04.974Z,8.97
2023-03-05T08:43:33.158Z,9.07
2023-03-05T08:46:01.899Z,8.20
2023-03-05T08:48:31.712Z,9.00
2023-03-05T08:51:08.656Z,8.83
2023-03-05T08:53:36.717Z,8.77
2023-03-05T08:56:04.416Z,9.17
2023-03-05T08:58:32.719Z,9.00
2023-03-05T09:01:00.242Z,7.53
2023-03-05T09:03:28.008Z,8.33
2023-03-05T09:05:59.999Z,8.30
2023-03-05T09:08:29.128Z,8.80
2023-03-05T09:10:57.288Z,8.73
2023-03-05T09:13:25.768Z,8.93
2023-03-05T09:15:58.672Z,9.87
2023-03-05T09:18:26.793Z,9.07
2023-03-05T09:20:54.254Z,7.90
2023-03-05T09:23:22.368Z,8.23
2023-03-05T09:25:50.020Z,8.23
2023-03-05T09:28:17.356Z,8.57
2023-03-05T09:30:44.605Z,8.20
2023-03-05T09:33:11.989Z,9.77
2023-03-05T09:35:39.233Z,9.60
2023-03-05T09:38:06.603Z,9.57
2023-03-05T09:41:03.316Z,9.87
2023-03-05T09:43:56.627Z,9.97
2023-03-05T09:46:47.993Z,9.10
2023-03-05T09:49:28.595Z,9.60
2023-03-05T09:52:04.040Z,9.07
2023-03-05T09:54:41.189Z,8.93
2023-03-05T09:57:18.367Z,9.07
2023-03-05T09:59:53.984Z,8.73
2023-03-05T10:02:28.315Z,9.00
2023-03-05T10:05:04.365Z,9.13
2023-03-05T10:07:36.191Z,8.93
2023-03-05T10:10:10.481Z,9.40
2023-03-05T10:12:42.997Z,9.73
2023-03-05T10:15:13.550Z,9.13
2023-03-05T10:18:04.706Z,8.73
2023-03-05T10:21:00.121Z,8.57
2023-03-05T10:23:33.460Z,9.83
2023-03-05T10:26:11.786Z,9.80
2023-03-05T10:29:14.423Z,9.33
2023-03-05T10:31:59.909Z,8.80
2023-03-05T10:34:55.435Z,9.63
2023-03-05T10:37:34.235Z,9.50
2023-03-05T10:40:36.610Z,9.40
2023-03-05T10:43:22.705Z,9.60
2023-03-05T10:45:55.230Z,9.70
2023-03-05T10:48:38.942Z,10.83
2023-03-05T10:51:20.841Z,11.57
2023-03-05T10:53:58.149Z,11.07
2023-03-05T10:56:28.339Z,8.97
2023-03-05T10:58:55.738Z,9.20
2023-03-05T11:01:29.221Z,10.53
2023-03-05T11:04:01.676Z,9.40
2023-03-05T11:06:35.011Z,9.57
2023-03-05T11:09:18.070Z,8.33
2023-03-05T11:12:01.629Z,9.33
2023-03-05T11:14:33.297Z,9.50
2023-03-05T11:17:01.922Z,9.33
2023-03-05T11:19:34.293Z,8.47
2023-03-05T11:22:14.227Z,8.70
2023-03-05T11:24:42.237Z,9.00
2023-03-05T11:27:32.620Z,9.10
2023-03-05T11:29:59.966Z,9.07
2023-03-05T11:32:28.670Z,9.27
2023-03-05T11:34:59.310Z,9.10
2023-03-05T11:37:31.337Z,9.27
2023-03-05T11:40:23.127Z,8.83
2023-03-05T11:42:56.592Z,8.77
2023-03-05T11:46:03.230Z,8.50
2023-03-05T11:48:37.419Z,8.57
2023-03-05T11:55:28.517Z,7.20
2023-03-05T12:04:33.529Z,7.57
2023-03-05T12:07:04.508Z,7.33
2023-03-05T12:09:43.436Z,7.73
2023-03-05T12:12:44.982Z,8.20
2023-03-05T12:15:32.285Z,7.23
2023-03-05T12:18:10.851Z,7.47
2023-03-05T12:20:55.346Z,7.67
2023-03-05T12:23:26.870Z,6.53
2023-03-05T12:25:57.785Z,6.63
2023-03-05T12:28:34.410Z,6.20
2023-03-05T12:31:26.014Z,7.17
2023-03-05T12:33:53.403Z,6.63
2023-03-05T12:36:20.604Z,6.23
2023-03-05T12:38:53.666Z,7.03
2023-03-05T12:41:25.430Z,6.23
2023-03-05T12:44:06.532Z,6.30
2023-03-05T12:46:38.376Z,6.30
2023-03-05T12:49:18.167Z,5.67
2023-03-05T12:51:52.301Z,6.10
2023-03-05T12:54:25.792Z,6.30
2023-03-05T12:56:55.387Z,6.53
2023-03-05T12:59:29.553Z,5.60
2023-03-05T13:02:03.392Z,5.70
2023-03-05T13:04:32.934Z,5.70
2023-03-05T13:07:04.103Z,5.57
2023-03-05T13:09:34.920Z,5.67
2023-03-05T13:12:04.982Z,4.97
2023-03-05T13:14:40.923Z,5.33
2023-03-05T13:17:29.059Z,5.10
2023-03-05T13:19:58.587Z,4.67
2023-03-05T13:22:27.514Z,4.77
2023-03-05T13:25:14.998Z,4.70
2023-03-05T13:27:43.674Z,4.70
2023-03-05T13:30:27.377Z,4.60
2023-03-05T13:33:03.058Z,5.40
2023-03-05T13:35:34.128Z,5.67
2023-03-05T13:38:02.240Z,5.00
2023-03-05T13:40:32.707Z,5.20
2023-03-05T13:43:19.758Z,5.63
2023-03-05T13:45:54.931Z,4.90
2023-03-05T13:48:22.451Z,4.37
2023-03-05T13:50:59.077Z,3.97
2023-03-05T13:53:31.557Z,4.33
2023-03-05T13:56:08.680Z,4.20
2023-03-05T13:58:52.610Z,3.67
2023-03-05T14:01:29.464Z,4.07
2023-03-05T14:04:06.134Z,4.50
2023-03-05T14:06:40.091Z,3.90
2023-03-05T14:09:19.533Z,4.17
2023-03-05T14:11:53.939Z,4.83
2023-03-05T14:14:23.930Z,4.33
2023-03-05T14:16:52.168Z,4.67
2023-03-05T14:19:37.285Z,4.53
2023-03-05T14:22:06.184Z,4.43
2023-03-05T14:24:33.986Z,5.27
2023-03-05T14:27:07.677Z,4.60
2023-03-05T14:29:36.654Z,4.20
2023-03-05T14:32:17.245Z,4.30
2023-03-05T14:34:56.332Z,4.43
2023-03-05T14:37:29.108Z,3.93
2023-03-05T14:39:59.511Z,4.20
2023-03-05T14:42:56.401Z,4.63
2023-03-05T14:45:27.311Z,4.27
2023-03-05T14:47:58.179Z,3.97
2023-03-05T14:50:35.414Z,3.80
2023-03-05T14:53:07.524Z,3.73
2023-03-05T14:55:35.598Z,4.10
2023-03-05T14:58:07.520Z,3.60
2023-03-05T15:00:34.987Z,4.60
2023-03-05T15:03:03.433Z,4.57
2023-03-05T15:05:31.321Z,4.37
2023-03-05T15:07:59.388Z,4.20
2023-03-05T15:10:26.803Z,4.50
2023-03-05T15:12:54.353Z,4.77
2023-03-05T15:15:22.767Z,4.43
2023-03-05T15:17:55.971Z,4.40
2023-03-05T15:20:30.926Z,4.20
2023-03-05T15:23:03.735Z,4.40
2023-03-05T15:25:34.952Z,5.10
2023-03-05T15:28:02.690Z,5.30
2023-03-05T15:30:38.906Z,4.97
2023-03-05T15:33:42.846Z,5.30
2023-03-05T15:36:35.564Z,5.30
2023-03-05T15:40:24.958Z,5.10
2023-03-05T15:42:52.710Z,5.23
2023-03-05T15:45:23.512Z,5.73
2023-03-05T15:47:56.281Z,5.93
2023-03-05T15:50:26.076Z,5.73
2023-03-05T15:53:05.845Z,6.30
2023-03-05T16:00:48.605Z,6.00
2023-03-05T16:07:57.994Z,5.03
2023-03-05T16:41:57.690Z,5.97
2023-03-05T16:44:56.605Z,6.17
2023-03-05T17:09:12.233Z,5.63
2023-03-05T17:11:43.018Z,5.00
2023-03-05T17:14:11.236Z,5.10
2023-03-05T17:16:38.894Z,5.00
2023-03-05T17:19:06.441Z,5.50
2023-03-05T17:21:34.461Z,5.50
2023-03-05T17:24:02.951Z,5.13
2023-03-05T17:26:32.718Z,4.77
2023-03-05T17:29:00.151Z,5.13
2023-03-05T17:31:27.528Z,5.80
2023-03-05T17:33:58.561Z,5.73
2023-03-05T17:36:52.237Z,6.20
2023-03-05T17:39:19.520Z,5.50
2023-03-05T17:42:44.232Z,5.77
2023-03-05T17:57:54.766Z,6.37
2023-03-05T18:00:49.447Z,5.77
2023-03-05T21:01:53.699Z,7.57
2023-03-05T21:04:25.107Z,7.40
2023-03-05T22:02:21.402Z,8.13
2023-03-05T22:04:50.031Z,8.33
2023-03-05T22:07:18.396Z,8.40
2023-03-05T22:09:45.903Z,8.47
2023-03-05T22:12:20.206Z,7.93
2023-03-05T22:14:47.931Z,7.80
2023-03-05T22:17:15.248Z,7.50
2023-03-05T22:19:42.621Z,8.17
2023-03-05T22:22:09.919Z,7.57
2023-03-05T22:24:37.311Z,7.17
2023-03-05T22:27:04.663Z,7.27
2023-03-05T22:29:32.071Z,7.27
2023-03-05T22:31:59.392Z,7.40
2023-03-05T22:34:26.723Z,7.03
2023-03-05T22:36:54.240Z,6.90
2023-03-05T22:39:21.891Z,8.10
2023-03-05T22:41:49.377Z,6.73
2023-03-05T22:44:17.029Z,6.87
2023-03-05T22:46:44.433Z,7.23
2023-03-05T22:49:11.786Z,6.80
2023-03-05T22:51:39.141Z,7.40
2023-03-05T22:54:06.694Z,6.67
2023-03-05T22:56:36.190Z,7.00
2023-03-05T22:59:03.514Z,6.13
2023-03-05T23:01:30.880Z,6.97
2023-03-05T23:04:04.638Z,6.93
2023-03-05T23:06:32.106Z,7.43
2023-03-05T23:09:00.099Z,6.57
2023-03-05T23:11:27.414Z,6.93
2023-03-05T23:13:55.039Z,6.40
2023-03-05T23:16:22.470Z,7.13
2023-03-05T23:18:50.374Z,6.63
2023-03-05T23:21:18.334Z,6.60
2023-03-05T23:23:45.870Z,6.70
2023-03-05T23:26:13.265Z,7.07
2023-03-05T23:28:40.562Z,7.07
2023-03-05T23:31:08.001Z,6.37
2023-03-05T23:33:35.410Z,6.87
2023-03-05T23:36:02.721Z,6.47
2023-03-05T23:38:30.569Z,6.70
2023-03-05T23:41:01.093Z,7.00
2023-03-05T23:43:29.705Z,6.57
2023-03-05T23:45:57.343Z,6.77
2023-03-05T23:48:26.310Z,6.67
2023-03-05T23:50:54.450Z,6.37
2023-03-05T23:53:24.973Z,6.07
2023-03-05T23:55:52.876Z,6.70
2023-03-05T23:58:21.002Z,6.73
